sensor_id;sensor_type;location;lat;lon;timestamp;pressure;altitude;pressure_sealevel;temperature;humidity
2405;BME280;1213;43.206;27.922;2022-12-05T00:03:51;102657.88;;;6.39;100.00
2405;BME280;1213;43.206;27.922;2022-12-05T00:06:18;102669.22;;;6.36;100.00
2405;BME280;1213;43.206;27.922;2022-12-05T00:08:45;102672.59;;;6.42;100.00
2405;BME280;1213;43.206;27.922;2022-12-05T00:11:12;102672.66;;;6.38;100.00
2405;BME280;1213;43.206;27.922;2022-12-05T00:13:39;102664.75;;;6.43;100.00
2405;BME280;1213;43.206;27.922;2022-12-05T00:16:14;102669.94;;;6.45;100.00
2405;BME280;1213;43.206;27.922;2022-12-05T00:18:41;102668.28;;;6.40;100.00
2405;BME280;1213;43.206;27.922;2022-12-05T00:21:10;102665.56;;;6.47;100.00
2405;BME280;1213;43.206;27.922;2022-12-05T00:23:36;102663.91;;;6.43;100.00
2405;BME280;1213;43.206;27.922;2022-12-05T00:26:03;102670.72;;;6.51;100.00
2405;BME280;1213;43.206;27.922;2022-12-05T00:28:30;102668.25;;;6.42;100.00
2405;BME280;1213;43.206;27.922;2022-12-05T00:30:56;102669.34;;;6.30;100.00
2405;BME280;1213;43.206;27.922;2022-12-05T00:33:23;102669.22;;;6.36;100.00
2405;BME280;1213;43.206;27.922;2022-12-05T00:35:48;102670.19;;;6.31;100.00
2405;BME280;1213;43.206;27.922;2022-12-05T00:38:14;102655.47;;;6.28;100.00
2405;BME280;1213;43.206;27.922;2022-12-05T00:40:39;102655.34;;;6.33;100.00
2405;BME280;1213;43.206;27.922;2022-12-05T00:43:05;102666.75;;;6.29;100.00
2405;BME280;1213;43.206;27.922;2022-12-05T00:45:30;102662.38;;;6.31;100.00
2405;BME280;1213;43.206;27.922;2022-12-05T00:47:55;102662.34;;;6.32;100.00
2405;BME280;1213;43.206;27.922;2022-12-05T00:50:21;102653.56;;;6.36;100.00
2405;BME280;1213;43.206;27.922;2022-12-05T00:52:46;102652.84;;;6.28;100.00
2405;BME280;1213;43.206;27.922;2022-12-05T00:55:12;102648.22;;;6.44;100.00
2405;BME280;1213;43.206;27.922;2022-12-05T00:57:37;102650.72;;;6.49;100.00
2405;BME280;1213;43.206;27.922;2022-12-05T01:00:05;102642.03;;;6.48;100.00
2405;BME280;1213;43.206;27.922;2022-12-05T01:02:30;102648.38;;;6.33;100.00
2405;BME280;1213;43.206;27.922;2022-12-05T01:04:56;102635.34;;;6.35;100.00
2405;BME280;1213;43.206;27.922;2022-12-05T01:07:21;102630.13;;;6.35;100.00
2405;BME280;1213;43.206;27.922;2022-12-05T01:09:47;102640.41;;;6.41;100.00
2405;BME280;1213;43.206;27.922;2022-12-05T01:12:13;102645.63;;;6.41;100.00
2405;BME280;1213;43.206;27.922;2022-12-05T01:14:39;102646.63;;;6.35;100.00
2405;BME280;1213;43.206;27.922;2022-12-05T01:17:04;102637.88;;;6.38;100.00
2405;BME280;1213;43.206;27.922;2022-12-05T01:19:31;102635.34;;;6.35;100.00
2405;BME280;1213;43.206;27.922;2022-12-05T01:21:57;102635.34;;;6.35;100.00
2405;BME280;1213;43.206;27.922;2022-12-05T01:24:24;102633.44;;;6.42;100.00
2405;BME280;1213;43.206;27.922;2022-12-05T01:26:50;102621.91;;;6.53;100.00
2405;BME280;1213;43.206;27.922;2022-12-05T01:29:18;102627.34;;;6.41;100.00
2405;BME280;1213;43.206;27.922;2022-12-05T01:31:44;102621.13;;;6.48;100.00
2405;BME280;1213;43.206;27.922;2022-12-05T01:34:13;102620.25;;;6.49;100.00
2405;BME280;1213;43.206;27.922;2022-12-05T01:36:39;102617.03;;;6.36;100.00
2405;BME280;1213;43.206;27.922;2022-12-05T01:39:05;102609.00;;;6.46;100.00
2405;BME280;1213;43.206;27.922;2022-12-05T01:41:34;102606.38;;;6.47;100.00
2405;BME280;1213;43.206;27.922;2022-12-05T01:46:32;102597.44;;;6.59;100.00
2405;BME280;1213;43.206;27.922;2022-12-05T01:49:19;102596.47;;;6.63;100.00
2405;BME280;1213;43.206;27.922;2022-12-05T01:51:48;102598.97;;;6.69;100.00
2405;BME280;1213;43.206;27.922;2022-12-05T01:54:16;102588.59;;;6.66;100.00
2405;BME280;1213;43.206;27.922;2022-12-05T01:56:47;102592.38;;;6.50;100.00
2405;BME280;1213;43.206;27.922;2022-12-05T01:59:16;102593.16;;;6.55;100.00
2405;BME280;1213;43.206;27.922;2022-12-05T02:01:43;102577.66;;;6.47;100.00
2405;BME280;1213;43.206;27.922;2022-12-05T02:04:09;102587.38;;;6.39;100.00
2405;BME280;1213;43.206;27.922;2022-12-05T02:06:35;102583.69;;;6.51;100.00
2405;BME280;1213;43.206;27.922;2022-12-05T02:09:00;102584.59;;;6.48;100.00
2405;BME280;1213;43.206;27.922;2022-12-05T02:11:27;102578.47;;;6.51;100.00
2405;BME280;1213;43.206;27.922;2022-12-05T02:14:32;102579.22;;;6.56;100.00
2405;BME280;1213;43.206;27.922;2022-12-05T02:31:47;102572.19;;;6.59;100.00
2405;BME280;1213;43.206;27.922;2022-12-05T02:37:43;102577.28;;;6.64;100.00
2405;BME280;1213;43.206;27.922;2022-12-05T02:40:14;102572.06;;;6.65;100.00
2405;BME280;1213;43.206;27.922;2022-12-05T02:42:55;102581.50;;;6.71;100.00
2405;BME280;1213;43.206;27.922;2022-12-05T02:45:26;102597.94;;;6.76;100.00
2405;BME280;1213;43.206;27.922;2022-12-05T02:47:53;102577.97;;;6.74;100.00
2405;BME280;1213;43.206;27.922;2022-12-05T02:50:22;102587.56;;;6.73;100.00
2405;BME280;1213;43.206;27.922;2022-12-05T02:52:51;102599.81;;;6.70;100.00
2405;BME280;1213;43.206;27.922;2022-12-05T02:55:19;102594.56;;;6.71;100.00
2405;BME280;1213;43.206;27.922;2022-12-05T02:57:49;102592.69;;;6.78;100.00
2405;BME280;1213;43.206;27.922;2022-12-05T03:00:17;102599.66;;;6.77;100.00
2405;BME280;1213;43.206;27.922;2022-12-05T03:02:43;102603.06;;;6.82;100.00
2405;BME280;1213;43.206;27.922;2022-12-05T03:07:56;102607.47;;;6.79;100.00
2405;BME280;1213;43.206;27.922;2022-12-05T03:10:25;102599.66;;;6.77;100.00
2405;BME280;1213;43.206;27.922;2022-12-05T03:12:58;102602.28;;;6.77;100.00
2405;BME280;1213;43.206;27.922;2022-12-05T03:15:28;102609.91;;;6.86;100.00
2405;BME280;1213;43.206;27.922;2022-12-05T03:18:04;102609.84;;;6.91;100.00
2405;BME280;1213;43.206;27.922;2022-12-05T03:20:44;102600.28;;;6.90;100.00
2405;BME280;1213;43.206;27.922;2022-12-05T03:23:33;102612.47;;;6.89;100.00
2405;BME280;1213;43.206;27.922;2022-12-05T03:26:10;102597.38;;;7.02;100.00
2405;BME280;1213;43.206;27.922;2022-12-05T03:31:41;102602.78;;;6.94;100.00
2405;BME280;1213;43.206;27.922;2022-12-05T03:34:14;102600.06;;;6.99;100.00
2405;BME280;1213;43.206;27.922;2022-12-05T03:36:46;102593.06;;;7.01;100.00
2405;BME280;1213;43.206;27.922;2022-12-05T03:39:26;102594.13;;;6.92;100.00
2405;BME280;1213;43.206;27.922;2022-12-05T03:42:08;102594.06;;;6.94;100.00
2405;BME280;1213;43.206;27.922;2022-12-05T03:44:51;102585.47;;;6.90;100.00
2405;BME280;1213;43.206;27.922;2022-12-05T03:49:59;102591.25;;;7.05;100.00
2405;BME280;1213;43.206;27.922;2022-12-05T03:52:36;102592.91;;;7.07;100.00
2405;BME280;1213;43.206;27.922;2022-12-05T03:55:07;102598.88;;;7.14;100.00
2405;BME280;1213;43.206;27.922;2022-12-05T03:57:55;102601.56;;;7.11;100.00
2405;BME280;1213;43.206;27.922;2022-12-05T04:00:22;102602.50;;;7.07;100.00
2405;BME280;1213;43.206;27.922;2022-12-05T04:02:55;102603.47;;;7.04;100.00
2405;BME280;1213;43.206;27.922;2022-12-05T04:05:29;102609.59;;;7.02;100.00
2405;BME280;1213;43.206;27.922;2022-12-05T04:08:09;102604.97;;;7.14;100.00
2405;BME280;1213;43.206;27.922;2022-12-05T04:10:38;102603.50;;;7.01;100.00
2405;BME280;1213;43.206;27.922;2022-12-05T04:13:19;102600.97;;;6.98;100.00
2405;BME280;1213;43.206;27.922;2022-12-05T04:15:54;102602.59;;;7.04;100.00
2405;BME280;1213;43.206;27.922;2022-12-05T04:18:45;102608.72;;;7.01;100.00
2405;BME280;1213;43.206;27.922;2022-12-05T04:21:12;102609.72;;;6.97;100.00
2405;BME280;1213;43.206;27.922;2022-12-05T04:23:57;102614.97;;;6.95;100.00
2405;BME280;1213;43.206;27.922;2022-12-05T04:26:45;102603.28;;;7.12;100.00
2405;BME280;1213;43.206;27.922;2022-12-05T04:29:46;102621.44;;;7.18;100.00
2405;BME280;1213;43.206;27.922;2022-12-05T04:32:14;102608.69;;;7.03;100.00
2405;BME280;1213;43.206;27.922;2022-12-05T04:34:45;102625.31;;;7.00;100.00
2405;BME280;1213;43.206;27.922;2022-12-05T04:37:17;102618.75;;;6.81;100.00
2405;BME280;1213;43.206;27.922;2022-12-05T04:40:03;102628.03;;;6.95;100.00
2405;BME280;1213;43.206;27.922;2022-12-05T04:42:32;102621.91;;;6.95;100.00
2405;BME280;1213;43.206;27.922;2022-12-05T04:45:03;102631.63;;;6.90;100.00
2405;BME280;1213;43.206;27.922;2022-12-05T04:47:36;102630.78;;;6.89;100.00
2405;BME280;1213;43.206;27.922;2022-12-05T04:50:05;102636.72;;;6.96;100.00
2405;BME280;1213;43.206;27.922;2022-12-05T04:52:35;102631.59;;;6.91;100.00
2405;BME280;1213;43.206;27.922;2022-12-05T04:57:39;102643.03;;;6.86;100.00
2405;BME280;1213;43.206;27.922;2022-12-05T05:00:07;102646.44;;;6.89;100.00
2405;BME280;1213;43.206;27.922;2022-12-05T05:02:45;102640.22;;;6.95;100.00
2405;BME280;1213;43.206;27.922;2022-12-05T05:05:13;102638.53;;;6.92;100.00
2405;BME280;1213;43.206;27.922;2022-12-05T05:07:49;102636.78;;;6.93;100.00
2405;BME280;1213;43.206;27.922;2022-12-05T05:10:19;102644.66;;;6.91;100.00
2405;BME280;1213;43.206;27.922;2022-12-05T05:12:45;102644.53;;;6.98;100.00
2405;BME280;1213;43.206;27.922;2022-12-05T05:15:10;102640.97;;;7.00;100.00
2405;BME280;1213;43.206;27.922;2022-12-05T05:17:36;102645.28;;;7.03;100.00
2405;BME280;1213;43.206;27.922;2022-12-05T05:20:02;102645.09;;;7.10;100.00
2405;BME280;1213;43.206;27.922;2022-12-05T05:22:47;102644.34;;;7.07;100.00
2405;BME280;1213;43.206;27.922;2022-12-05T05:25:13;102649.53;;;7.08;100.00
2405;BME280;1213;43.206;27.922;2022-12-05T05:27:38;102637.44;;;7.04;100.00
2405;BME280;1213;43.206;27.922;2022-12-05T05:30:04;102648.66;;;7.08;100.00
2405;BME280;1213;43.206;27.922;2022-12-05T05:32:33;102648.66;;;7.08;100.00
2405;BME280;1213;43.206;27.922;2022-12-05T05:34:59;102650.41;;;7.07;100.00
2405;BME280;1213;43.206;27.922;2022-12-05T05:37:24;102648.69;;;7.06;100.00
2405;BME280;1213;43.206;27.922;2022-12-05T05:39:52;102651.22;;;7.09;100.00
2405;BME280;1213;43.206;27.922;2022-12-05T05:42:17;102646.03;;;7.08;100.00
2405;BME280;1213;43.206;27.922;2022-12-05T05:44:43;102646.22;;;7.00;100.00
2405;BME280;1213;43.206;27.922;2022-12-05T05:47:08;102652.56;;;6.87;100.00
2405;BME280;1213;43.206;27.922;2022-12-05T05:49:33;102650.00;;;6.85;100.00
2405;BME280;1213;43.206;27.922;2022-12-05T05:51:59;102643.72;;;6.95;100.00
2405;BME280;1213;43.206;27.922;2022-12-05T05:54:24;102641.84;;;7.01;100.00
2405;BME280;1213;43.206;27.922;2022-12-05T05:56:50;102648.00;;;6.98;100.00
2405;BME280;1213;43.206;27.922;2022-12-05T05:59:15;102645.63;;;6.86;100.00
2405;BME280;1213;43.206;27.922;2022-12-05T06:01:41;102647.25;;;6.91;100.00
2405;BME280;1213;43.206;27.922;2022-12-05T06:04:06;102641.84;;;7.01;100.00
2405;BME280;1213;43.206;27.922;2022-12-05T06:06:32;102638.34;;;7.02;100.00
2405;BME280;1213;43.206;27.922;2022-12-05T06:08:57;102644.66;;;6.91;100.00
2405;BME280;1213;43.206;27.922;2022-12-05T06:11:24;102639.09;;;7.07;100.00
2405;BME280;1213;43.206;27.922;2022-12-05T06:13:51;102646.81;;;7.13;100.00
2405;BME280;1213;43.206;27.922;2022-12-05T06:16:19;102645.97;;;7.12;100.00
2405;BME280;1213;43.206;27.922;2022-12-05T06:18:45;102642.19;;;7.26;100.00
2405;BME280;1213;43.206;27.922;2022-12-05T06:21:11;102654.53;;;7.17;100.00
2405;BME280;1213;43.206;27.922;2022-12-05T06:23:39;102652.81;;;7.16;100.00
2405;BME280;1213;43.206;27.922;2022-12-05T06:26:08;102658.53;;;7.35;100.00
2405;BME280;1213;43.206;27.922;2022-12-05T06:28:36;102661.88;;;7.40;100.00
2405;BME280;1213;43.206;27.922;2022-12-05T06:31:10;102669.56;;;7.48;100.00
2405;BME280;1213;43.206;27.922;2022-12-05T06:33:37;102659.38;;;7.36;100.00
2405;BME280;1213;43.206;27.922;2022-12-05T06:36:16;102667.88;;;7.45;100.00
2405;BME280;1213;43.206;27.922;2022-12-05T06:38:42;102664.53;;;7.39;100.00
2405;BME280;1213;43.206;27.922;2022-12-05T06:41:10;102664.31;;;7.48;100.00
2405;BME280;1213;43.206;27.922;2022-12-05T06:43:36;102655.53;;;7.52;100.00
2405;BME280;1213;43.206;27.922;2022-12-05T06:46:05;102673.56;;;7.63;100.00
2405;BME280;1213;43.206;27.922;2022-12-05T06:48:31;102677.03;;;7.65;100.00
2405;BME280;1213;43.206;27.922;2022-12-05T06:50:56;102667.38;;;7.67;100.00
2405;BME280;1213;43.206;27.922;2022-12-05T06:53:22;102667.25;;;7.73;100.00
2405;BME280;1213;43.206;27.922;2022-12-05T06:55:59;102660.84;;;7.86;100.00
2405;BME280;1213;43.206;27.922;2022-12-05T06:58:25;102675.34;;;7.98;100.00
2405;BME280;1213;43.206;27.922;2022-12-05T07:00:51;102662.03;;;8.07;100.00
2405;BME280;1213;43.206;27.922;2022-12-05T07:03:35;102668.31;;;8.00;100.00
2405;BME280;1213;43.206;27.922;2022-12-05T07:06:03;102678.88;;;7.97;100.00
2405;BME280;1213;43.206;27.922;2022-12-05T07:08:32;102670.91;;;8.01;100.00
2405;BME280;1213;43.206;27.922;2022-12-05T07:10:58;102683.50;;;8.21;100.00
2405;BME280;1213;43.206;27.922;2022-12-05T07:13:23;102679.25;;;8.16;100.00
2405;BME280;1213;43.206;27.922;2022-12-05T07:15:53;102676.44;;;8.25;100.00
2405;BME280;1213;43.206;27.922;2022-12-05T07:18:49;102673.09;;;8.18;100.00
2405;BME280;1213;43.206;27.922;2022-12-05T07:21:24;102675.69;;;8.20;100.00
2405;BME280;1213;43.206;27.922;2022-12-05T07:23:50;102680.78;;;8.26;100.00
2405;BME280;1213;43.206;27.922;2022-12-05T07:26:21;102679.06;;;8.23;100.00
2405;BME280;1213;43.206;27.922;2022-12-05T07:28:48;102676.28;;;8.29;100.00
2405;BME280;1213;43.206;27.922;2022-12-05T07:31:19;102673.44;;;8.40;100.00
2405;BME280;1213;43.206;27.922;2022-12-05T07:33:47;102675.31;;;8.35;100.00
2405;BME280;1213;43.206;27.922;2022-12-05T07:36:16;102669.66;;;8.50;100.00
2405;BME280;1213;43.206;27.922;2022-12-05T07:38:42;102676.50;;;8.56;100.00
2405;BME280;1213;43.206;27.922;2022-12-05T07:41:22;102681.72;;;8.57;100.00
2405;BME280;1213;43.206;27.922;2022-12-05T07:43:58;102680.59;;;8.66;100.00
2405;BME280;1213;43.206;27.922;2022-12-05T07:46:25;102684.44;;;8.53;100.00
2405;BME280;1213;43.206;27.922;2022-12-05T07:48:51;102683.59;;;8.52;100.00
2405;BME280;1213;43.206;27.922;2022-12-05T07:51:17;102685.09;;;8.61;100.00
2405;BME280;1213;43.206;27.922;2022-12-05T07:53:43;102680.97;;;8.52;100.00
2405;BME280;1213;43.206;27.922;2022-12-05T07:56:12;102685.19;;;8.58;100.00
2405;BME280;1213;43.206;27.922;2022-12-05T07:59:08;102694.50;;;8.68;100.00
2405;BME280;1213;43.206;27.922;2022-12-05T08:01:45;102683.34;;;8.61;100.00
2405;BME280;1213;43.206;27.922;2022-12-05T08:04:37;102688.81;;;8.52;100.00
2405;BME280;1213;43.206;27.922;2022-12-05T08:07:03;102690.25;;;8.64;100.00
2405;BME280;1213;43.206;27.922;2022-12-05T08:09:29;102694.28;;;8.76;100.00
2405;BME280;1213;43.206;27.922;2022-12-05T08:11:54;102697.28;;;8.95;100.00
2405;BME280;1213;43.206;27.922;2022-12-05T08:14:19;102698.66;;;8.77;100.00
2405;BME280;1213;43.206;27.922;2022-12-05T08:16:50;102700.19;;;8.84;100.00
2405;BME280;1213;43.206;27.922;2022-12-05T08:19:15;102695.91;;;8.81;100.00
2405;BME280;1213;43.206;27.922;2022-12-05T08:21:41;102690.69;;;9.11;100.00
2405;BME280;1213;43.206;27.922;2022-12-05T08:24:07;102685.50;;;9.09;100.00
2405;BME280;1213;43.206;27.922;2022-12-05T08:26:37;102686.75;;;9.26;100.00
2405;BME280;1213;43.206;27.922;2022-12-05T08:29:11;102683.50;;;9.17;100.00
2405;BME280;1213;43.206;27.922;2022-12-05T08:31:43;102685.91;;;9.25;100.00
2405;BME280;1213;43.206;27.922;2022-12-05T08:34:12;102684.00;;;9.30;100.00
2405;BME280;1213;43.206;27.922;2022-12-05T08:36:37;102688.25;;;9.34;100.00
2405;BME280;1213;43.206;27.922;2022-12-05T08:39:07;102682.75;;;9.42;100.00
2405;BME280;1213;43.206;27.922;2022-12-05T08:41:39;102685.03;;;9.25;100.00
2405;BME280;1213;43.206;27.922;2022-12-05T08:44:16;102687.09;;;9.13;100.00
2405;BME280;1213;43.206;27.922;2022-12-05T08:46:44;102687.09;;;9.13;100.00
2405;BME280;1213;43.206;27.922;2022-12-05T08:49:14;102681.78;;;9.16;100.00
2405;BME280;1213;43.206;27.922;2022-12-05T08:51:41;102687.03;;;9.16;100.00
2405;BME280;1213;43.206;27.922;2022-12-05T08:54:10;102676.13;;;9.30;100.00
2405;BME280;1213;43.206;27.922;2022-12-05T08:56:36;102677.00;;;9.29;100.00
2405;BME280;1213;43.206;27.922;2022-12-05T08:59:05;102678.59;;;9.35;100.00
2405;BME280;1213;43.206;27.922;2022-12-05T09:01:34;102671.63;;;9.34;100.00
2405;BME280;1213;43.206;27.922;2022-12-05T09:04:06;102678.47;;;9.39;100.00
2405;BME280;1213;43.206;27.922;2022-12-05T09:06:35;102677.38;;;9.47;100.00
2405;BME280;1213;43.206;27.922;2022-12-05T09:09:04;102671.81;;;9.28;100.00
2405;BME280;1213;43.206;27.922;2022-12-05T09:11:32;102684.22;;;9.52;100.00
2405;BME280;1213;43.206;27.922;2022-12-05T09:14:00;102677.44;;;9.45;100.00
2405;BME280;1213;43.206;27.922;2022-12-05T09:16:28;102676.41;;;9.49;100.00
2405;BME280;1213;43.206;27.922;2022-12-05T09:18:54;102671.72;;;9.59;100.00
2405;BME280;1213;43.206;27.922;2022-12-05T09:21:23;102666.72;;;9.53;100.00
2405;BME280;1213;43.206;27.922;2022-12-05T09:23:52;102670.06;;;9.56;100.00
2405;BME280;1213;43.206;27.922;2022-12-05T09:26:22;102669.03;;;9.62;100.00
2405;BME280;1213;43.206;27.922;2022-12-05T09:28:49;102669.94;;;9.61;100.00
2405;BME280;1213;43.206;27.922;2022-12-05T09:31:21;102662.25;;;9.55;100.00
2405;BME280;1213;43.206;27.922;2022-12-05T09:33:47;102660.09;;;9.94;100.00
2405;BME280;1213;43.206;27.922;2022-12-05T09:36:22;102656.81;;;9.87;100.00
2405;BME280;1213;43.206;27.922;2022-12-05T09:38:48;102645.41;;;9.88;100.00
2405;BME280;1213;43.206;27.922;2022-12-05T09:50:56;102648.47;;;9.74;100.00
2405;BME280;1213;43.206;27.922;2022-12-05T10:01:56;102656.22;;;9.51;100.00
2405;BME280;1213;43.206;27.922;2022-12-05T10:07:37;102659.75;;;9.50;100.00
2405;BME280;1213;43.206;27.922;2022-12-05T10:10:26;102654.63;;;9.47;100.00
2405;BME280;1213;43.206;27.922;2022-12-05T10:18:55;102645.78;;;9.22;100.00
2405;BME280;1213;43.206;27.922;2022-12-05T10:21:30;102641.50;;;9.47;100.00
2405;BME280;1213;43.206;27.922;2022-12-05T10:24:00;102636.50;;;9.67;100.00
2405;BME280;1213;43.206;27.922;2022-12-05T10:26:32;102632.03;;;9.69;100.00
2405;BME280;1213;43.206;27.922;2022-12-05T10:31:46;102631.13;;;9.70;100.00
2405;BME280;1213;43.206;27.922;2022-12-05T10:34:17;102633.81;;;9.69;100.00
2405;BME280;1213;43.206;27.922;2022-12-05T10:36:57;102626.69;;;9.72;100.00
2405;BME280;1213;43.206;27.922;2022-12-05T10:39:28;102622.91;;;9.81;100.00
2405;BME280;1213;43.206;27.922;2022-12-05T10:41:58;102614.09;;;10.09;100.00
2405;BME280;1213;43.206;27.922;2022-12-05T10:44:23;102616.31;;;9.94;100.00
2405;BME280;1213;43.206;27.922;2022-12-05T10:46:49;102603.84;;;10.01;100.00
2405;BME280;1213;43.206;27.922;2022-12-05T10:49:17;102601.38;;;9.96;100.00
2405;BME280;1213;43.206;27.922;2022-12-05T10:51:43;102610.41;;;9.88;100.00
2405;BME280;1213;43.206;27.922;2022-12-05T10:54:23;102613.56;;;9.99;100.00
2405;BME280;1213;43.206;27.922;2022-12-05T10:56:52;102605.94;;;9.91;100.00
2405;BME280;1213;43.206;27.922;2022-12-05T10:59:23;102607.94;;;10.10;100.00
2405;BME280;1213;43.206;27.922;2022-12-05T11:01:54;102601.09;;;10.04;100.00
2405;BME280;1213;43.206;27.922;2022-12-05T11:04:31;102608.59;;;9.90;100.00
2405;BME280;1213;43.206;27.922;2022-12-05T11:07:05;102602.31;;;9.69;100.00
2405;BME280;1213;43.206;27.922;2022-12-05T11:09:36;102601.53;;;9.65;100.00
2405;BME280;1213;43.206;27.922;2022-12-05T11:14:38;102598.72;;;9.98;100.00
2405;BME280;1213;43.206;27.922;2022-12-05T11:17:04;102605.16;;;9.88;100.00
2405;BME280;1213;43.206;27.922;2022-12-05T11:19:37;102598.00;;;9.93;100.00
2405;BME280;1213;43.206;27.922;2022-12-05T11:22:04;102599.38;;;9.78;100.00
2405;BME280;1213;43.206;27.922;2022-12-05T11:24:37;102591.66;;;9.73;100.00
2405;BME280;1213;43.206;27.922;2022-12-05T11:27:29;102593.63;;;9.67;100.00
2405;BME280;1213;43.206;27.922;2022-12-05T11:32:31;102584.13;;;9.63;100.00
2405;BME280;1213;43.206;27.922;2022-12-05T11:35:08;102584.94;;;9.65;100.00
2405;BME280;1213;43.206;27.922;2022-12-05T11:37:55;102585.75;;;9.67;100.00
2405;BME280;1213;43.206;27.922;2022-12-05T11:57:25;102569.13;;;9.66;100.00
2405;BME280;1213;43.206;27.922;2022-12-05T12:05:59;102559.22;;;9.50;100.00
2405;BME280;1213;43.206;27.922;2022-12-05T12:14:58;102550.91;;;9.88;100.00
2405;BME280;1213;43.206;27.922;2022-12-05T12:32:48;102537.34;;;10.25;100.00
2405;BME280;1213;43.206;27.922;2022-12-05T12:51:20;102531.06;;;10.05;100.00
2405;BME280;1213;43.206;27.922;2022-12-05T12:54:19;102529.34;;;10.04;100.00
2405;BME280;1213;43.206;27.922;2022-12-05T13:02:03;102526.66;;;9.55;100.00
2405;BME280;1213;43.206;27.922;2022-12-05T13:04:48;102527.16;;;9.66;100.00
2405;BME280;1213;43.206;27.922;2022-12-05T13:07:30;102522.13;;;9.60;100.00
2405;BME280;1213;43.206;27.922;2022-12-05T13:10:05;102528.50;;;9.53;100.00
2405;BME280;1213;43.206;27.922;2022-12-05T13:12:38;102530.78;;;9.36;100.00
2405;BME280;1213;43.206;27.922;2022-12-05T13:15:11;102536.34;;;9.27;100.00
2405;BME280;1213;43.206;27.922;2022-12-05T13:17:40;102530.59;;;9.15;100.00
2405;BME280;1213;43.206;27.922;2022-12-05T13:20:17;102536.75;;;9.14;100.00
2405;BME280;1213;43.206;27.922;2022-12-05T13:22:45;102538.59;;;9.11;100.00
2405;BME280;1213;43.206;27.922;2022-12-05T13:25:15;102530.78;;;9.09;100.00
2405;BME280;1213;43.206;27.922;2022-12-05T13:27:56;102539.03;;;8.97;100.00
2405;BME280;1213;43.206;27.922;2022-12-05T13:30:23;102541.66;;;8.97;100.00
2405;BME280;1213;43.206;27.922;2022-12-05T13:33:07;102537.31;;;8.96;100.00
2405;BME280;1213;43.206;27.922;2022-12-05T13:35:36;102542.94;;;9.12;100.00
2405;BME280;1213;43.206;27.922;2022-12-05T13:38:33;102535.72;;;9.18;100.00
2405;BME280;1213;43.206;27.922;2022-12-05T13:41:26;102534.94;;;9.16;100.00
2405;BME280;1213;43.206;27.922;2022-12-05T13:44:28;102539.56;;;9.08;100.00
2405;BME280;1213;43.206;27.922;2022-12-05T13:46:57;102539.22;;;8.91;100.00
2405;BME280;1213;43.206;27.922;2022-12-05T13:52:38;102546.28;;;8.89;100.00
2405;BME280;1213;43.206;27.922;2022-12-05T13:55:32;102543.75;;;8.86;100.00
2405;BME280;1213;43.206;27.922;2022-12-05T13:58:02;102548.91;;;8.89;100.00
2405;BME280;1213;43.206;27.922;2022-12-05T14:00:31;102545.47;;;8.87;100.00
2405;BME280;1213;43.206;27.922;2022-12-05T14:05:50;102538.69;;;8.80;100.00
2405;BME280;1213;43.206;27.922;2022-12-05T14:15:44;102539.66;;;8.77;100.00
2405;BME280;1213;43.206;27.922;2022-12-05T14:19:04;102544.16;;;8.72;100.00
2405;BME280;1213;43.206;27.922;2022-12-05T14:21:37;102546.88;;;8.69;100.00
2405;BME280;1213;43.206;27.922;2022-12-05T14:30:08;102544.50;;;8.61;100.00
2405;BME280;1213;43.206;27.922;2022-12-05T14:32:41;102557.41;;;8.68;100.00
2405;BME280;1213;43.206;27.922;2022-12-05T14:35:22;102549.84;;;8.57;100.00
2405;BME280;1213;43.206;27.922;2022-12-05T14:38:01;102550.63;;;8.60;100.00
2405;BME280;1213;43.206;27.922;2022-12-05T14:40:38;102549.06;;;8.53;100.00
2405;BME280;1213;43.206;27.922;2022-12-05T14:43:17;102544.78;;;8.51;100.00
2405;BME280;1213;43.206;27.922;2022-12-05T14:46:05;102549.19;;;8.50;100.00
2405;BME280;1213;43.206;27.922;2022-12-05T14:48:40;102542.28;;;8.48;100.00
2405;BME280;1213;43.206;27.922;2022-12-05T14:51:54;102544.91;;;8.48;100.00
2405;BME280;1213;43.206;27.922;2022-12-05T14:54:22;102548.28;;;8.51;100.00
2405;BME280;1213;43.206;27.922;2022-12-05T14:57:02;102555.28;;;8.51;100.00
2405;BME280;1213;43.206;27.922;2022-12-05T14:59:43;102553.66;;;8.47;100.00
2405;BME280;1213;43.206;27.922;2022-12-05T15:02:41;102554.19;;;8.58;100.00
2405;BME280;1213;43.206;27.922;2022-12-05T15:05:26;102551.56;;;8.58;100.00
2405;BME280;1213;43.206;27.922;2022-12-05T15:07:55;102555.38;;;8.48;100.00
2405;BME280;1213;43.206;27.922;2022-12-05T15:10:34;102557.72;;;8.57;100.00
2405;BME280;1213;43.206;27.922;2022-12-05T15:13:06;102567.47;;;8.52;100.00
2405;BME280;1213;43.206;27.922;2022-12-05T15:18:38;102562.28;;;8.50;100.00
2405;BME280;1213;43.206;27.922;2022-12-05T15:21:41;102560.47;;;8.52;100.00
2405;BME280;1213;43.206;27.922;2022-12-05T15:24:13;102562.44;;;8.44;100.00
2405;BME280;1213;43.206;27.922;2022-12-05T15:26:53;102556.44;;;8.41;100.00
2405;BME280;1213;43.206;27.922;2022-12-05T15:31:54;102556.41;;;8.42;100.00
2405;BME280;1213;43.206;27.922;2022-12-05T15:37:25;102563.13;;;8.51;100.00
2405;BME280;1213;43.206;27.922;2022-12-05T15:40:10;102562.59;;;8.38;100.00
2405;BME280;1213;43.206;27.922;2022-12-05T15:42:45;102559.19;;;8.34;100.00
2405;BME280;1213;43.206;27.922;2022-12-05T15:45:21;102551.25;;;8.39;100.00
2405;BME280;1213;43.206;27.922;2022-12-05T15:50:21;102553.88;;;8.39;100.00
2405;BME280;1213;43.206;27.922;2022-12-05T15:53:03;102554.88;;;8.33;100.00
2405;BME280;1213;43.206;27.922;2022-12-05T15:58:23;102558.09;;;8.43;100.00
2405;BME280;1213;43.206;27.922;2022-12-05T16:01:17;102560.16;;;8.32;100.00
2405;BME280;1213;43.206;27.922;2022-12-05T16:06:49;102553.72;;;8.44;100.00
2405;BME280;1213;43.206;27.922;2022-12-05T16:09:27;102551.44;;;8.31;100.00
2405;BME280;1213;43.206;27.922;2022-12-05T16:11:58;102560.97;;;8.34;100.00
2405;BME280;1213;43.206;27.922;2022-12-05T16:14:29;102549.63;;;8.33;100.00
2405;BME280;1213;43.206;27.922;2022-12-05T16:16:58;102556.69;;;8.30;100.00